Time;durP1;ratioP1;P1;durP2;ratioP2;P2;SDS_P1;SDS_P2;PMS_P1;PMS_P2;Temp;Humidity;BMP_temperature;BMP_pressure;BME280_temperature;BME280_humidity;BME280_pressure;Samples;Min_cycle;Max_cycle;Signal;HPM_P1;HPM_P2
2023/12/18 00:01:10;;;;;;;6.20;3.20;;;;;;;10.92;89.43;102129.03;4917202;29;20067;-69
2023/12/18 00:03:35;;;;;;;7.35;3.45;;;;;;;10.86;89.96;102128.41;4966787;28;20047;-69
2023/12/18 00:06:01;;;;;;;4.97;2.67;;;;;;;10.89;89.73;102144.75;4938202;29;20035;-69
2023/12/18 00:08:26;;;;;;;9.75;4.05;;;;;;;10.34;91.81;102133.03;4948821;28;20048;-69
2023/12/18 00:10:52;;;;;;;4.05;2.45;;;;;;;10.81;90.55;102128.56;4936572;29;20038;-68
2023/12/18 00:13:17;;;;;;;9.75;3.38;;;;;;;10.74;91.12;102117.50;4933415;29;20475;-69
2023/12/18 00:15:43;;;;;;;6.45;3.15;;;;;;;10.84;90.04;102128.72;4935619;29;20510;-69
2023/12/18 00:18:08;;;;;;;8.32;3.53;;;;;;;10.90;89.75;102123.94;4931679;29;20050;-69
2023/12/18 00:20:34;;;;;;;4.53;2.85;;;;;;;10.82;90.62;102112.09;4931886;28;20042;-69
2023/12/18 00:23:02;;;;;;;7.30;3.40;;;;;;;10.83;90.84;102102.91;4947073;28;20047;-69
2023/12/18 00:25:28;;;;;;;7.53;3.65;;;;;;;10.89;90.22;102100.81;4936497;28;20075;-69
2023/12/18 00:27:53;;;;;;;6.80;2.90;;;;;;;10.87;91.21;102095.75;4935493;29;20070;-69
2023/12/18 00:30:19;;;;;;;5.32;3.13;;;;;;;10.92;90.73;102088.63;4952376;28;20068;-69
2023/12/18 00:32:47;;;;;;;6.45;3.53;;;;;;;10.88;90.88;102089.25;4951444;28;20032;-69
2023/12/18 00:35:12;;;;;;;10.50;3.45;;;;;;;10.91;90.61;102087.81;4933161;29;20119;-69
2023/12/18 00:37:38;;;;;;;11.63;3.45;;;;;;;10.79;91.38;102096.56;4937931;29;20510;-69
2023/12/18 00:40:04;;;;;;;6.45;2.67;;;;;;;10.78;91.32;102089.56;4935034;29;20447;-68
2023/12/18 00:42:29;;;;;;;10.98;4.28;;;;;;;10.89;91.44;102093.53;4933344;29;20071;-69
2023/12/18 00:44:54;;;;;;;8.27;3.95;;;;;;;10.79;91.74;102076.91;4964861;28;20123;-69
2023/12/18 00:47:20;;;;;;;9.85;3.28;;;;;;;10.71;92.01;102075.81;4949606;28;20039;-70
2023/12/18 00:49:45;;;;;;;6.18;3.55;;;;;;;10.83;91.72;102075.94;4937122;29;20042;-69
2023/12/18 00:52:11;;;;;;;7.65;3.75;;;;;;;10.61;92.81;102064.56;4948435;28;20031;-69
2023/12/18 00:54:39;;;;;;;7.72;3.65;;;;;;;10.66;92.41;102054.44;4951322;28;20024;-69
2023/12/18 00:57:05;;;;;;;6.40;2.92;;;;;;;10.73;91.87;102049.34;4936626;29;20043;-69
2023/12/18 00:59:30;;;;;;;7.88;3.17;;;;;;;10.72;91.87;102050.44;4934066;29;20039;-69
2023/12/18 01:01:56;;;;;;;14.25;3.50;;;;;;;10.76;92.41;102040.59;4925275;29;20379;-69
2023/12/18 01:04:21;;;;;;;5.72;2.97;;;;;;;10.76;92.10;102034.44;4934984;29;20051;-69
2023/12/18 01:06:47;;;;;;;6.47;3.45;;;;;;;10.76;92.42;102035.22;4933010;29;20035;-69
2023/12/18 01:09:12;;;;;;;10.30;3.38;;;;;;;10.68;92.10;102049.50;4937550;29;20036;-69
2023/12/18 01:11:38;;;;;;;4.72;2.90;;;;;;;10.87;91.12;102039.16;4949084;28;20035;-69
2023/12/18 01:14:08;;;;;;;8.82;3.90;;;;;;;10.87;91.75;102032.97;4947583;29;20039;-69
2023/12/18 01:16:33;;;;;;;8.15;3.03;;;;;;;10.96;91.00;102035.63;4935505;29;20063;-69
2023/12/18 01:18:59;;;;;;;9.13;3.60;;;;;;;10.78;91.54;102046.47;4948464;28;20040;-69
2023/12/18 01:21:24;;;;;;;7.63;3.53;;;;;;;10.88;90.94;102045.31;4952149;28;20543;-69
2023/12/18 01:23:50;;;;;;;6.15;3.17;;;;;;;10.68;92.01;102041.41;4933963;29;20037;-69
2023/12/18 01:26:18;;;;;;;5.53;3.30;;;;;;;10.73;92.07;102032.38;4932895;29;20044;-69
2023/12/18 01:28:43;;;;;;;13.40;3.53;;;;;;;10.63;92.08;102038.91;4937297;29;20039;-69
2023/12/18 01:31:24;;;;;;;7.38;3.42;;;;;;;10.74;92.05;102034.75;4932997;29;20036;-69
2023/12/18 01:33:52;;;;;;;5.85;3.53;;;;;;;10.57;92.88;102042.06;4931455;29;20470;-69
2023/12/18 01:36:18;;;;;;;6.53;4.05;;;;;;;10.58;92.91;102043.66;4933084;29;20106;-69
2023/12/18 01:38:43;;;;;;;11.05;3.70;;;;;;;10.74;92.05;102037.44;4948124;28;20574;-69
2023/12/18 01:41:09;;;;;;;6.88;3.20;;;;;;;10.71;92.11;102038.09;4949517;28;20040;-69
2023/12/18 01:43:34;;;;;;;9.27;3.25;;;;;;;10.72;91.82;102030.81;4931741;29;20554;-69
2023/12/18 01:46:01;;;;;;;9.38;3.45;;;;;;;10.78;91.04;102026.84;4951217;28;20078;-69
2023/12/18 01:48:31;;;;;;;5.95;3.65;;;;;;;10.79;91.35;102031.91;4932806;29;20063;-69
2023/12/18 01:50:58;;;;;;;8.23;3.13;;;;;;;10.69;92.30;102024.16;4929593;29;20404;-69
2023/12/18 01:53:30;;;;;;;5.70;3.25;;;;;;;10.61;92.98;102034.94;4933212;29;20039;-69
2023/12/18 01:55:59;;;;;;;5.07;2.67;;;;;;;10.77;91.78;102033.31;4934637;29;20031;-69
2023/12/18 01:58:25;;;;;;;7.72;3.45;;;;;;;10.88;91.39;102038.03;4947573;28;20114;-69
2023/12/18 02:00:52;;;;;;;6.32;3.35;;;;;;;10.67;91.79;102029.06;4962189;28;20114;-69
2023/12/18 02:03:19;;;;;;;5.40;2.60;;;;;;;10.57;92.17;102040.19;4947953;28;20132;-69
2023/12/18 02:05:44;;;;;;;5.65;3.00;;;;;;;10.61;92.94;102035.72;4932353;29;20062;-69
2023/12/18 02:08:13;;;;;;;10.15;4.38;;;;;;;10.71;91.74;102030.00;4933542;29;20110;-69
2023/12/18 02:10:39;;;;;;;6.60;3.38;;;;;;;10.41;92.66;102028.34;4943452;28;20123;-70
2023/12/18 02:13:04;;;;;;;8.07;3.85;;;;;;;10.65;92.41;102027.78;4934378;28;20115;-69
2023/12/18 02:15:30;;;;;;;7.95;3.53;;;;;;;10.70;91.94;102023.03;4945763;28;20481;-69
2023/12/18 02:17:55;;;;;;;7.30;3.42;;;;;;;10.73;91.84;102037.75;4964667;28;20439;-69
2023/12/18 02:20:21;;;;;;;9.88;3.83;;;;;;;10.76;92.16;102040.59;4934259;29;20050;-70
2023/12/18 02:22:46;;;;;;;7.85;4.22;;;;;;;10.69;91.38;102043.00;4932534;29;20035;-69
2023/12/18 02:25:18;;;;;;;7.28;3.47;;;;;;;10.80;91.93;102036.16;4931052;29;20526;-69
2023/12/18 02:27:45;;;;;;;8.75;3.63;;;;;;;10.67;91.91;102031.75;4934557;29;20049;-69
2023/12/18 02:30:19;;;;;;;9.77;3.38;;;;;;;10.64;92.63;102016.25;4933351;29;20402;-70
2023/12/18 02:32:45;;;;;;;13.45;3.97;;;;;;;10.56;93.73;102019.75;4962046;28;20040;-69
2023/12/18 02:35:11;;;;;;;8.25;3.75;;;;;;;10.55;93.29;102014.69;4931831;29;20035;-69
2023/12/18 02:37:36;;;;;;;6.55;3.13;;;;;;;10.68;92.36;102011.00;4932054;28;20655;-69
2023/12/18 02:40:02;;;;;;;8.75;3.25;;;;;;;10.75;92.21;102004.00;4935052;29;20028;-69
2023/12/18 02:42:27;;;;;;;9.23;3.33;;;;;;;10.73;92.70;101990.06;4945659;28;20597;-69
2023/12/18 02:44:56;;;;;;;6.93;2.67;;;;;;;10.71;92.45;101986.91;4930593;29;20122;-70
2023/12/18 02:47:22;;;;;;;6.47;3.50;;;;;;;10.66;93.14;101984.41;4932025;29;20094;-69
2023/12/18 02:49:48;;;;;;;7.93;4.13;;;;;;;10.86;92.35;101985.56;4928432;29;20054;-69
2023/12/18 02:52:16;;;;;;;7.55;3.80;;;;;;;10.80;92.29;101987.66;4934816;29;20027;-69
2023/12/18 02:54:41;;;;;;;13.23;3.63;;;;;;;10.50;92.94;101986.03;4942614;28;20043;-69
2023/12/18 02:57:07;;;;;;;7.53;3.10;;;;;;;10.67;93.04;101987.84;4932326;29;20035;-69
2023/12/18 02:59:32;;;;;;;8.82;3.90;;;;;;;10.81;92.23;101991.16;4932316;29;20038;-70
2023/12/18 03:02:00;;;;;;;13.15;3.85;;;;;;;10.90;91.71;101986.50;4935270;28;20035;-69
2023/12/18 03:04:26;;;;;;;8.05;3.40;;;;;;;10.89;91.39;101979.53;4961016;28;20040;-69
2023/12/18 03:06:51;;;;;;;9.85;3.55;;;;;;;10.62;92.36;101982.66;4952430;28;20082;-69
2023/12/18 03:09:20;;;;;;;5.88;3.47;;;;;;;10.86;91.51;101974.78;4947437;28;20146;-69
2023/12/18 03:11:47;;;;;;;9.45;4.07;;;;;;;10.67;93.04;101979.78;4936530;29;20036;-69
2023/12/18 03:14:12;;;;;;;5.55;3.38;;;;;;;10.62;93.69;101986.16;4960497;28;20035;-69
2023/12/18 03:16:37;;;;;;;11.02;3.75;;;;;;;10.66;93.25;101983.59;4936571;29;20122;-69
2023/12/18 03:19:03;;;;;;;10.32;3.78;;;;;;;10.62;93.98;101994.22;4937053;29;20061;-69
2023/12/18 03:21:28;;;;;;;9.52;4.05;;;;;;;10.77;92.84;101987.50;4930683;29;20035;-69
2023/12/18 03:23:54;;;;;;;7.85;3.75;;;;;;;10.63;92.88;101998.50;4933871;29;20430;-69
2023/12/18 03:26:20;;;;;;;8.25;3.53;;;;;;;10.71;93.01;101997.69;4949420;28;20090;-69
2023/12/18 03:28:45;;;;;;;9.15;4.10;;;;;;;10.80;92.13;101992.28;4946528;28;20117;-69
2023/12/18 03:31:11;;;;;;;5.75;3.70;;;;;;;10.68;91.96;101998.31;4944116;28;20036;-69
2023/12/18 03:33:37;;;;;;;9.68;4.28;;;;;;;10.63;93.55;101997.69;4930181;29;20035;-69
2023/12/18 03:36:06;;;;;;;14.93;4.05;;;;;;;10.66;93.23;102002.47;4932276;29;20020;-69
2023/12/18 03:38:31;;;;;;;11.27;3.55;;;;;;;10.58;93.46;102005.97;4932123;29;20100;-69
2023/12/18 03:40:57;;;;;;;8.80;3.75;;;;;;;10.75;92.69;101998.63;4932450;29;20039;-69
2023/12/18 03:43:26;;;;;;;9.85;3.45;;;;;;;10.73;92.97;102006.22;4928605;29;20051;-69
2023/12/18 03:45:52;;;;;;;8.00;4.65;;;;;;;10.67;93.23;102012.91;4932223;29;20036;-69
2023/12/18 03:48:19;;;;;;;9.65;3.05;;;;;;;10.66;93.48;102022.13;4958785;28;20035;-70
2023/12/18 03:50:47;;;;;;;6.30;3.70;;;;;;;10.45;94.53;102018.50;4930550;29;20035;-69
2023/12/18 03:53:13;;;;;;;10.43;4.18;;;;;;;10.61;93.87;102016.88;4932417;29;20159;-69
2023/12/18 03:55:38;;;;;;;11.20;4.70;;;;;;;10.69;93.90;101994.50;4961609;28;20087;-69
2023/12/18 03:58:07;;;;;;;8.93;4.00;;;;;;;10.56;95.05;101997.41;4935091;28;20043;-69
2023/12/18 04:00:33;;;;;;;10.60;3.67;;;;;;;10.54;95.02;101995.03;4933854;29;20422;-69
2023/12/18 04:02:58;;;;;;;8.63;3.50;;;;;;;10.70;94.05;101988.00;4931993;29;20122;-69
2023/12/18 04:05:24;;;;;;;14.20;4.55;;;;;;;10.53;94.65;101974.59;4961224;28;20028;-69
2023/12/18 04:07:50;;;;;;;10.38;4.68;;;;;;;10.68;95.23;101987.53;4931169;29;20411;-69
2023/12/18 04:10:16;;;;;;;13.07;4.35;;;;;;;10.57;95.54;101998.97;4939917;29;20115;-69
2023/12/18 04:12:41;;;;;;;13.68;4.88;;;;;;;10.48;94.81;101998.22;4951408;28;20561;-69
2023/12/18 04:15:07;;;;;;;5.90;3.50;;;;;;;10.59;96.13;101999.44;4949734;28;20050;-69
2023/12/18 04:17:33;;;;;;;9.10;3.67;;;;;;;10.51;95.39;101986.81;4965836;28;20472;-69
2023/12/18 04:19:58;;;;;;;8.85;4.15;;;;;;;10.65;94.98;101987.38;4935298;29;20044;-69
2023/12/18 04:22:24;;;;;;;12.20;4.82;;;;;;;10.59;95.31;101986.78;4948617;28;20095;-69
2023/12/18 04:24:49;;;;;;;7.15;3.85;;;;;;;10.50;95.94;101988.72;4920743;29;20027;-69
2023/12/18 04:27:15;;;;;;;7.80;4.25;;;;;;;10.50;96.10;101985.22;4934666;29;20042;-70
2023/12/18 04:29:40;;;;;;;12.68;4.38;;;;;;;10.67;95.61;101985.97;4933871;29;20699;-69
2023/12/18 04:32:06;;;;;;;8.88;3.97;;;;;;;10.61;95.49;101983.75;4950515;28;20079;-69
2023/12/18 04:34:31;;;;;;;11.02;4.20;;;;;;;10.52;95.54;101988.38;4949902;28;20406;-69
2023/12/18 04:36:57;;;;;;;10.52;3.50;;;;;;;10.57;96.12;101985.50;4937148;29;20088;-69
2023/12/18 04:39:22;;;;;;;7.60;3.92;;;;;;;10.66;95.27;101991.69;4936047;29;20486;-69
2023/12/18 04:41:48;;;;;;;11.32;4.63;;;;;;;10.63;94.95;101979.63;4936359;29;20479;-69
2023/12/18 04:44:14;;;;;;;7.32;4.10;;;;;;;10.60;95.48;101976.81;4934932;29;20487;-69
2023/12/18 04:46:40;;;;;;;14.23;3.72;;;;;;;10.62;95.73;101971.88;4963243;28;20483;-69
2023/12/18 04:49:06;;;;;;;5.78;3.53;;;;;;;10.58;95.37;101968.25;4945004;28;20763;-69
2023/12/18 04:51:32;;;;;;;13.75;3.85;;;;;;;10.63;95.17;101987.72;4933256;29;20046;-69
2023/12/18 04:53:59;;;;;;;9.25;4.10;;;;;;;10.71;94.99;101972.63;4937091;29;20031;-69
2023/12/18 04:56:25;;;;;;;11.82;4.10;;;;;;;10.54;96.14;101991.56;4935741;29;20038;-69
2023/12/18 04:58:50;;;;;;;12.02;4.70;;;;;;;10.45;95.92;101988.88;4950287;28;20044;-69
2023/12/18 05:01:16;;;;;;;7.82;3.95;;;;;;;10.62;95.56;101977.28;4946366;28;20036;-69
2023/12/18 05:03:41;;;;;;;9.05;3.83;;;;;;;10.73;95.27;101987.38;4937331;29;20147;-69
2023/12/18 05:06:20;;;;;;;8.18;3.70;;;;;;;10.79;94.14;101983.38;4966927;28;20172;-69
2023/12/18 05:08:46;;;;;;;8.00;4.20;;;;;;;10.71;94.70;101996.88;4952932;28;20095;-69
2023/12/18 05:11:12;;;;;;;10.10;5.57;;;;;;;10.69;94.51;101975.66;4932993;29;20028;-69
2023/12/18 05:13:40;;;;;;;10.60;4.38;;;;;;;10.67;94.98;101979.78;4950260;28;20090;-69
2023/12/18 05:16:05;;;;;;;8.93;4.10;;;;;;;10.65;94.90;101980.09;4937866;29;20042;-69
2023/12/18 05:18:31;;;;;;;11.80;4.35;;;;;;;10.62;95.48;101979.97;4934046;28;20028;-69
2023/12/18 05:20:57;;;;;;;9.80;3.80;;;;;;;10.55;95.42;101988.53;4936945;29;20536;-70
2023/12/18 05:23:23;;;;;;;8.07;4.07;;;;;;;10.58;96.25;101987.09;4928622;29;20052;-69
2023/12/18 05:25:49;;;;;;;9.02;3.90;;;;;;;10.57;95.62;101993.59;4966724;28;20600;-69
2023/12/18 05:28:14;;;;;;;8.65;4.47;;;;;;;10.62;95.64;101999.63;4948707;28;20035;-69
2023/12/18 05:30:40;;;;;;;8.93;4.55;;;;;;;10.58;95.81;102011.34;4958191;28;20035;-70
2023/12/18 05:33:05;;;;;;;7.95;4.32;;;;;;;10.35;96.61;102010.78;4959919;28;20042;-69
2023/12/18 05:35:31;;;;;;;10.52;4.13;;;;;;;10.50;97.16;102001.38;4934909;29;20039;-69
2023/12/18 05:37:56;;;;;;;10.18;4.20;;;;;;;10.51;96.70;102001.06;4936501;29;20095;-69
2023/12/18 05:40:22;;;;;;;7.50;3.55;;;;;;;10.32;98.37;102000.63;4934316;29;20043;-69
2023/12/18 05:42:47;;;;;;;9.13;3.83;;;;;;;10.43;97.28;102001.09;4964057;28;20047;-69
2023/12/18 05:45:13;;;;;;;8.68;4.38;;;;;;;10.51;97.17;101997.59;4931256;29;20058;-70
2023/12/18 05:47:38;;;;;;;10.05;4.90;;;;;;;10.56;96.86;101990.13;4933549;29;20035;-69
2023/12/18 05:50:04;;;;;;;7.68;3.35;;;;;;;10.55;96.57;101972.38;4930408;29;20039;-69
2023/12/18 05:52:29;;;;;;;8.15;4.00;;;;;;;10.59;96.62;101985.97;4930325;29;20574;-69
2023/12/18 05:54:54;;;;;;;10.10;3.70;;;;;;;10.54;97.34;101997.72;4927512;29;20062;-70
2023/12/18 05:57:20;;;;;;;7.68;4.20;;;;;;;10.59;96.05;101994.84;4932254;29;20487;-69
2023/12/18 05:59:45;;;;;;;8.40;4.05;;;;;;;10.57;96.67;102007.84;4930844;29;20058;-69
2023/12/18 06:02:13;;;;;;;8.52;3.90;;;;;;;10.42;97.78;102008.38;4957862;28;20446;-69
2023/12/18 06:04:41;;;;;;;13.98;4.78;;;;;;;10.54;97.52;102003.13;4960569;28;20388;-69
2023/12/18 06:07:08;;;;;;;14.25;3.67;;;;;;;10.46;96.51;102003.94;4932403;29;20096;-69
2023/12/18 06:09:33;;;;;;;8.10;4.50;;;;;;;10.54;97.54;101997.72;4929131;29;20467;-69
2023/12/18 06:11:58;;;;;;;14.50;5.47;;;;;;;10.59;96.22;102008.31;4946425;28;20040;-69
2023/12/18 06:14:24;;;;;;;9.60;4.53;;;;;;;10.50;96.95;102001.38;4928368;29;20027;-69
2023/12/18 06:16:49;;;;;;;8.15;4.07;;;;;;;10.36;97.54;102022.31;4961119;28;20547;-69
2023/12/18 06:19:15;;;;;;;11.65;4.93;;;;;;;10.47;97.54;102024.34;4972283;28;20075;-69
2023/12/18 06:21:41;;;;;;;14.65;5.40;;;;;;;10.42;96.94;102023.72;4930713;29;20095;-69
2023/12/18 06:24:07;;;;;;;11.75;5.22;;;;;;;10.41;97.18;102022.97;4931417;29;20487;-69
2023/12/18 06:26:32;;;;;;;7.75;4.32;;;;;;;10.47;97.31;102010.88;4943601;28;20095;-70
2023/12/18 06:28:58;;;;;;;8.95;3.92;;;;;;;10.33;97.65;102025.66;4929819;29;20047;-69
2023/12/18 06:31:23;;;;;;;12.10;4.90;;;;;;;10.37;98.02;102018.53;4946499;28;20392;-69
2023/12/18 06:33:48;;;;;;;9.15;3.97;;;;;;;10.47;96.59;102023.56;4945503;29;20522;-69
2023/12/18 06:36:16;;;;;;;8.18;3.95;;;;;;;10.31;98.32;102028.66;4925380;29;20070;-68
2023/12/18 06:38:41;;;;;;;9.40;5.07;;;;;;;10.25;98.94;102026.44;4932260;29;20554;-68
2023/12/18 06:41:07;;;;;;;6.28;3.80;;;;;;;10.48;97.93;102022.44;4932682;29;20019;-68
2023/12/18 06:43:36;;;;;;;6.93;3.50;;;;;;;10.46;97.35;102024.66;4945488;28;20039;-69
2023/12/18 06:46:01;;;;;;;8.18;3.95;;;;;;;10.36;98.09;102025.00;4931954;29;20039;-69
2023/12/18 06:48:27;;;;;;;13.80;4.53;;;;;;;10.40;97.02;102015.97;4930905;29;20499;-70
2023/12/18 06:50:52;;;;;;;12.65;4.30;;;;;;;10.59;96.59;102026.38;4928943;29;20023;-69
2023/12/18 06:53:17;;;;;;;12.40;5.20;;;;;;;10.38;97.06;102028.16;4932558;29;20032;-69
2023/12/18 06:55:43;;;;;;;14.55;5.18;;;;;;;10.41;98.20;102028.34;4931906;29;20075;-69
2023/12/18 06:58:08;;;;;;;11.63;4.88;;;;;;;10.41;97.99;102024.84;4931928;29;20032;-69
2023/12/18 07:00:34;;;;;;;12.82;5.32;;;;;;;10.45;97.74;102026.56;4929338;29;20576;-69
2023/12/18 07:02:59;;;;;;;9.02;4.78;;;;;;;10.43;97.79;102022.63;4930911;29;20039;-69
2023/12/18 07:05:28;;;;;;;13.75;5.03;;;;;;;10.47;96.85;102018.97;4933899;29;20032;-69
2023/12/18 07:07:57;;;;;;;11.02;4.70;;;;;;;10.43;97.13;102022.63;4930480;29;20036;-69
2023/12/18 07:10:22;;;;;;;14.13;6.13;;;;;;;10.41;96.94;102014.88;4928998;29;20182;-69
2023/12/18 07:12:48;;;;;;;9.07;4.93;;;;;;;10.29;98.02;102019.31;4930053;29;20036;-69
2023/12/18 07:15:14;;;;;;;10.43;4.53;;;;;;;10.38;98.10;102014.69;4946375;29;20034;-69
2023/12/18 07:17:39;;;;;;;18.48;5.30;;;;;;;10.34;97.84;102030.72;4948145;28;20047;-69
2023/12/18 07:20:06;;;;;;;9.45;5.10;;;;;;;10.36;97.33;102028.50;4931461;29;20082;-69
2023/12/18 07:22:35;;;;;;;10.07;4.25;;;;;;;10.44;97.46;102035.78;4931541;29;20063;-69
2023/12/18 07:25:03;;;;;;;12.55;5.47;;;;;;;10.26;98.03;102044.19;4927654;29;20031;-69
2023/12/18 07:27:29;;;;;;;14.20;5.22;;;;;;;10.39;97.52;102037.84;4928097;29;20030;-69
2023/12/18 07:29:54;;;;;;;9.35;5.13;;;;;;;10.38;97.92;102041.63;4945244;28;20057;-69
2023/12/18 07:32:20;;;;;;;11.38;5.80;;;;;;;10.45;97.70;102048.13;4945910;28;20046;-69
2023/12/18 07:34:46;;;;;;;11.43;4.40;;;;;;;10.27;98.40;102051.94;4931124;29;20074;-69
2023/12/18 07:37:11;;;;;;;14.75;5.13;;;;;;;10.33;99.00;102050.69;4931318;29;20063;-69
2023/12/18 07:39:37;;;;;;;10.77;4.95;;;;;;;10.17;98.80;102051.47;4930683;29;20035;-68
2023/12/18 07:42:03;;;;;;;12.45;4.18;;;;;;;10.48;98.28;102042.09;4932497;29;20058;-69
2023/12/18 07:44:28;;;;;;;10.32;4.88;;;;;;;10.51;97.34;102048.75;4933244;28;20063;-69
2023/12/18 07:46:53;;;;;;;12.40;4.85;;;;;;;10.48;97.88;102047.50;4929985;29;20406;-69
2023/12/18 07:49:19;;;;;;;12.93;5.53;;;;;;;10.41;97.88;102041.81;4935107;29;20044;-69
2023/12/18 07:51:44;;;;;;;15.45;5.82;;;;;;;10.50;97.77;102052.56;4934137;29;20469;-69
2023/12/18 07:54:10;;;;;;;11.45;5.10;;;;;;;10.41;97.86;102052.56;4933505;28;20043;-69
2023/12/18 07:56:35;;;;;;;9.07;4.25;;;;;;;10.44;97.94;102051.94;4933619;29;20031;-69
2023/12/18 07:59:03;;;;;;;10.30;4.85;;;;;;;10.39;98.67;102054.81;4949141;29;20036;-69
2023/12/18 08:01:28;;;;;;;8.15;3.95;;;;;;;10.44;98.24;102059.22;4947372;29;20058;-69
2023/12/18 08:03:54;;;;;;;22.55;5.18;;;;;;;10.50;97.45;102056.03;4933996;29;20040;-69
2023/12/18 08:06:19;;;;;;;12.57;4.72;;;;;;;10.40;98.58;102053.69;4950363;29;20031;-69
2023/12/18 08:08:44;;;;;;;12.27;4.22;;;;;;;10.54;97.10;102066.97;4965179;28;20067;-69
2023/12/18 08:11:10;;;;;;;11.98;4.75;;;;;;;10.50;97.50;102047.16;4936654;29;20036;-69
2023/12/18 08:13:38;;;;;;;13.63;5.90;;;;;;;10.52;97.82;102055.72;4933880;29;20035;-69
2023/12/18 08:16:07;;;;;;;10.07;4.60;;;;;;;10.40;98.25;102050.97;4936776;29;20078;-69
2023/12/18 08:18:33;;;;;;;15.73;5.70;;;;;;;10.41;98.45;102041.81;4962633;28;20031;-69
2023/12/18 08:20:58;;;;;;;11.82;5.25;;;;;;;10.25;98.59;102053.38;4962077;28;21300;-69
2023/12/18 08:23:24;;;;;;;14.27;4.88;;;;;;;10.24;98.65;102049.88;4931265;29;20040;-69
2023/12/18 08:25:50;;;;;;;13.75;5.60;;;;;;;10.40;98.70;102050.97;4963299;28;20054;-69
2023/12/18 08:28:15;;;;;;;11.27;4.60;;;;;;;10.28;99.27;102042.75;4929595;29;20039;-69
2023/12/18 08:30:42;;;;;;;14.85;5.07;;;;;;;10.36;99.28;102044.66;4950007;29;20035;-69
2023/12/18 08:33:07;;;;;;;9.93;4.18;;;;;;;10.12;99.24;102047.06;4931236;29;20035;-69
2023/12/18 08:35:32;;;;;;;10.57;4.88;;;;;;;10.30;98.66;102031.69;4932369;29;20020;-69
2023/12/18 08:37:58;;;;;;;10.68;5.22;;;;;;;10.41;98.62;102036.41;4964195;28;20745;-69
2023/12/18 08:40:23;;;;;;;13.88;5.38;;;;;;;10.49;96.94;102032.91;4934529;29;20030;-69
2023/12/18 08:42:49;;;;;;;12.70;4.50;;;;;;;10.39;98.26;102024.38;4933163;29;20419;-69
2023/12/18 08:45:14;;;;;;;14.07;5.20;;;;;;;10.43;98.76;102031.47;4949139;29;20403;-69
2023/12/18 08:47:40;;;;;;;16.27;5.82;;;;;;;10.43;98.12;102028.78;4934502;29;20039;-69
2023/12/18 08:50:05;;;;;;;15.57;5.55;;;;;;;10.42;98.54;102013.75;4944110;28;20052;-69
2023/12/18 08:52:31;;;;;;;18.17;5.70;;;;;;;10.38;98.52;102018.19;4963056;28;20035;-69
2023/12/18 08:54:57;;;;;;;10.27;5.15;;;;;;;10.48;98.12;102009.78;4930547;29;20557;-69
2023/12/18 08:57:22;;;;;;;11.05;5.43;;;;;;;10.37;99.69;102005.06;4963979;28;20455;-69
2023/12/18 08:59:50;;;;;;;9.23;4.82;;;;;;;10.40;98.87;102015.97;4933766;29;20055;-69
2023/12/18 09:02:16;;;;;;;19.48;5.78;;;;;;;10.43;98.77;102018.00;4933403;29;20110;-69
2023/12/18 09:04:41;;;;;;;12.40;5.63;;;;;;;10.40;99.03;102031.34;4933556;29;20196;-69
2023/12/18 09:07:07;;;;;;;12.02;6.03;;;;;;;10.30;99.29;102026.31;4948911;29;20495;-69
2023/12/18 09:09:32;;;;;;;12.30;5.18;;;;;;;10.39;99.48;102035.94;4957069;28;20040;-69
2023/12/18 09:11:57;;;;;;;15.43;5.65;;;;;;;10.42;99.12;102031.81;4932615;29;20039;-69
2023/12/18 09:14:23;;;;;;;14.10;6.40;;;;;;;10.43;99.12;102031.47;4933920;29;20042;-69
2023/12/18 09:16:51;;;;;;;12.38;5.07;;;;;;;10.41;98.99;102028.34;4932291;29;20044;-69
2023/12/18 09:19:16;;;;;;;12.93;5.20;;;;;;;10.47;99.06;102026.28;4928528;29;20050;-69
2023/12/18 09:21:42;;;;;;;16.45;5.72;;;;;;;10.51;98.67;102029.91;4962973;28;20054;-69
2023/12/18 09:24:07;;;;;;;13.07;5.65;;;;;;;10.45;98.82;102015.78;4945266;29;20031;-70
2023/12/18 09:26:33;;;;;;;12.63;5.35;;;;;;;10.45;98.54;102025.78;4933346;29;20047;-69
2023/12/18 09:28:59;;;;;;;14.57;4.32;;;;;;;10.25;99.58;102026.44;4947730;29;20036;-69
2023/12/18 09:31:24;;;;;;;17.02;5.60;;;;;;;10.40;99.03;102018.66;4929284;29;20031;-69
2023/12/18 09:33:50;;;;;;;17.25;6.28;;;;;;;10.32;99.68;102027.53;4929113;29;20032;-69
2023/12/18 09:36:15;;;;;;;13.80;5.90;;;;;;;10.25;100.00;102021.84;4933897;29;20036;-69
2023/12/18 09:38:41;;;;;;;11.90;5.32;;;;;;;10.05;100.00;102030.53;4933931;29;20043;-69
2023/12/18 09:41:07;;;;;;;15.27;5.78;;;;;;;10.33;100.00;102023.75;4934291;28;20032;-68
2023/12/18 09:43:33;;;;;;;17.50;6.03;;;;;;;10.28;100.00;102015.81;4928620;29;20040;-69
2023/12/18 09:45:58;;;;;;;10.43;5.07;;;;;;;10.40;99.88;102017.88;4931342;29;20038;-69
2023/12/18 09:48:25;;;;;;;9.27;4.70;;;;;;;10.48;99.65;102000.91;4948138;28;20035;-69
2023/12/18 09:50:51;;;;;;;14.95;5.93;;;;;;;10.57;98.58;102010.53;4928669;29;20028;-69
2023/12/18 09:53:20;;;;;;;17.20;5.35;;;;;;;10.52;98.92;101999.97;4930374;29;20032;-69
2023/12/18 09:55:48;;;;;;;10.30;4.38;;;;;;;10.46;99.09;102012.00;4933190;29;20080;-69
2023/12/18 09:58:18;;;;;;;12.43;4.78;;;;;;;10.55;98.63;101998.53;4955889;28;20119;-69
2023/12/18 10:00:43;;;;;;;16.65;5.78;;;;;;;10.55;98.48;102002.00;4931508;29;20403;-69
2023/12/18 10:03:09;;;;;;;18.33;5.82;;;;;;;10.54;98.88;101995.03;4926798;29;20045;-69
2023/12/18 10:05:35;;;;;;;12.18;6.30;;;;;;;10.57;99.29;101993.59;4917594;29;20143;-69
2023/12/18 10:08:01;;;;;;;19.50;5.85;;;;;;;10.65;98.25;101998.16;4931824;29;20387;-69
2023/12/18 10:10:26;;;;;;;13.73;5.68;;;;;;;10.36;99.17;101990.78;4928762;29;20047;-69
2023/12/18 10:12:52;;;;;;;11.90;5.20;;;;;;;10.51;99.63;101986.81;4928232;29;20031;-69
2023/12/18 10:15:18;;;;;;;17.90;5.68;;;;;;;10.58;99.65;101973.63;4945972;29;20384;-69
2023/12/18 10:17:44;;;;;;;12.00;5.25;;;;;;;10.65;98.84;101972.03;4947412;29;20087;-69
2023/12/18 10:20:11;;;;;;;12.00;4.82;;;;;;;10.67;97.77;101974.38;4933175;29;20024;-69
2023/12/18 10:22:38;;;;;;;10.80;5.55;;;;;;;10.62;98.75;101977.28;4925812;29;20408;-69
2023/12/18 10:25:04;;;;;;;15.63;5.35;;;;;;;10.62;98.09;101972.69;4932002;29;20094;-69
2023/12/18 10:27:31;;;;;;;17.60;5.72;;;;;;;10.44;99.20;101970.34;4929604;29;20028;-69
2023/12/18 10:29:57;;;;;;;11.32;5.18;;;;;;;10.55;98.96;101966.97;4932220;29;20042;-69
2023/12/18 10:32:22;;;;;;;15.73;6.13;;;;;;;10.50;98.40;101971.75;4924330;29;20032;-69
2023/12/18 10:34:50;;;;;;;12.88;4.90;;;;;;;10.57;98.88;101974.72;4933452;29;20098;-69
2023/12/18 10:37:18;;;;;;;14.45;5.40;;;;;;;10.55;98.08;101958.91;4929989;29;20059;-69
2023/12/18 10:39:49;;;;;;;13.45;5.28;;;;;;;10.56;98.84;101963.19;4931226;29;20111;-69
2023/12/18 10:42:26;;;;;;;14.38;5.95;;;;;;;10.58;99.24;101962.88;4932507;29;20031;-69
2023/12/18 10:44:52;;;;;;;13.48;4.82;;;;;;;10.38;99.95;101958.16;4932105;29;20047;-69
2023/12/18 10:47:18;;;;;;;12.90;5.50;;;;;;;10.40;99.69;101958.63;4963380;28;20036;-69
2023/12/18 10:49:45;;;;;;;14.60;5.93;;;;;;;10.42;98.85;101945.63;4930018;29;20044;-69
2023/12/18 10:52:12;;;;;;;18.02;6.28;;;;;;;10.55;99.94;101950.81;4927763;29;20411;-69
2023/12/18 10:54:39;;;;;;;12.48;5.22;;;;;;;10.66;98.10;101946.69;4931724;29;20047;-69
2023/12/18 10:57:10;;;;;;;13.75;4.85;;;;;;;10.74;98.04;101939.66;4932457;29;20035;-69
2023/12/18 10:59:37;;;;;;;;;;;;;;;10.46;99.05;101950.06;4933433;29;20047;-69
2023/12/18 11:02:06;;;;;;;14.20;6.80;;;;;;;10.42;98.85;101943.75;4947541;28;19925;-69
2023/12/18 11:04:35;;;;;;;12.90;4.93;;;;;;;10.47;98.81;101934.72;4932623;29;20047;-69
2023/12/18 11:07:01;;;;;;;12.57;5.88;;;;;;;10.57;99.16;101939.72;4930999;29;20414;-69
2023/12/18 11:09:26;;;;;;;18.20;6.28;;;;;;;10.73;98.17;101932.69;4932719;29;20035;-69
2023/12/18 11:11:53;;;;;;;17.55;5.38;;;;;;;10.67;97.55;101934.78;4932314;29;20044;-69
2023/12/18 11:14:32;;;;;;;15.10;6.07;;;;;;;10.66;97.95;101932.41;4932558;29;20051;-69
2023/12/18 11:17:28;;;;;;;11.20;5.00;;;;;;;10.63;97.49;101939.22;4934392;29;20040;-69